createdAt,value
2018-08-09T00:00:21.286Z,53.87
2018-08-09T00:02:49.502Z,53.96
2018-08-09T00:05:17.709Z,54.33
2018-08-09T00:07:45.901Z,53.91
2018-08-09T00:10:14.113Z,54.28
2018-08-09T00:12:42.326Z,54.90
2018-08-09T00:15:10.523Z,55.31
2018-08-09T00:17:38.719Z,55.06
2018-08-09T00:20:06.969Z,55.20
2018-08-09T00:22:35.150Z,55.35
2018-08-09T00:25:03.365Z,55.77
2018-08-09T00:27:31.619Z,55.77
2018-08-09T00:29:59.811Z,55.27
2018-08-09T00:32:28.038Z,54.37
2018-08-09T00:34:56.238Z,53.51
2018-08-09T00:37:24.453Z,52.98
2018-08-09T00:39:52.643Z,53.01
2018-08-09T00:42:20.858Z,53.20
2018-08-09T00:44:49.280Z,52.60
2018-08-09T00:47:17.486Z,52.84
2018-08-09T00:49:45.678Z,52.52
2018-08-09T00:52:13.922Z,52.49
2018-08-09T00:54:42.102Z,52.36
2018-08-09T00:57:10.275Z,52.89
2018-08-09T00:59:38.503Z,52.59
2018-08-09T01:02:06.831Z,52.18
2018-08-09T01:04:35.024Z,52.80
2018-08-09T01:07:03.268Z,52.68
2018-08-09T01:09:31.430Z,53.18
2018-08-09T01:11:59.638Z,52.91
2018-08-09T01:14:27.829Z,53.14
2018-08-09T01:16:56.035Z,53.28
2018-08-09T01:19:24.218Z,53.61
2018-08-09T01:21:52.395Z,53.78
2018-08-09T01:24:20.630Z,53.97
2018-08-09T01:26:48.805Z,52.56
2018-08-09T01:29:17.002Z,53.46
2018-08-09T01:31:45.194Z,52.20
2018-08-09T01:34:16.239Z,52.92
2018-08-09T01:36:44.445Z,52.99
2018-08-09T01:39:13.734Z,53.87
2018-08-09T01:43:55.007Z,52.72
2018-08-09T01:46:23.251Z,53.14
2018-08-09T01:48:51.437Z,52.86
2018-08-09T01:51:19.678Z,52.80
2018-08-09T01:53:47.904Z,53.38
2018-08-09T01:56:16.113Z,53.56
2018-08-09T01:58:44.325Z,52.70
2018-08-09T02:01:12.530Z,53.18
2018-08-09T02:03:40.738Z,52.90
2018-08-09T02:06:08.930Z,53.45
2018-08-09T02:08:37.127Z,52.88
2018-08-09T02:11:05.303Z,53.11
2018-08-09T02:13:33.463Z,53.24
2018-08-09T02:16:01.646Z,52.52
2018-08-09T02:18:29.806Z,52.20
2018-08-09T02:20:57.994Z,52.29
2018-08-09T02:23:26.174Z,52.72
2018-08-09T02:25:54.377Z,52.65
2018-08-09T02:28:22.535Z,53.49
2018-08-09T02:30:50.703Z,52.55
2018-08-09T02:33:18.970Z,52.99
2018-08-09T02:35:47.168Z,51.83
2018-08-09T02:38:15.374Z,52.08
2018-08-09T02:40:43.633Z,52.62
2018-08-09T02:43:11.856Z,52.67
2018-08-09T02:45:40.058Z,51.68
2018-08-09T02:48:08.277Z,51.05
2018-08-09T02:50:36.486Z,51.68
2018-08-09T02:53:04.683Z,51.55
2018-08-09T02:55:32.863Z,51.73
2018-08-09T02:58:01.037Z,52.51
2018-08-09T03:00:29.522Z,52.61
2018-08-09T03:02:57.703Z,52.38
2018-08-09T03:05:25.919Z,52.26
2018-08-09T03:07:54.134Z,52.45
2018-08-09T03:10:22.356Z,52.30
2018-08-09T03:12:50.546Z,51.77
2018-08-09T03:15:18.723Z,52.28
2018-08-09T03:17:46.931Z,52.32
2018-08-09T03:20:15.159Z,52.12
2018-08-09T03:22:43.377Z,51.98
2018-08-09T03:25:11.567Z,51.66
2018-08-09T03:27:39.747Z,51.39
2018-08-09T03:30:07.954Z,51.39
2018-08-09T03:32:36.165Z,52.07
2018-08-09T03:35:04.463Z,51.89
2018-08-09T03:37:32.655Z,51.78
2018-08-09T03:40:00.846Z,51.63
2018-08-09T03:42:29.058Z,51.85
2018-08-09T03:44:57.273Z,51.08
2018-08-09T03:47:25.475Z,51.34
2018-08-09T03:49:53.682Z,51.32
2018-08-09T03:52:21.898Z,51.00
2018-08-09T03:54:50.067Z,51.06
2018-08-09T03:57:18.237Z,51.09
2018-08-09T03:59:46.491Z,51.63
2018-08-09T04:02:14.686Z,51.27
2018-08-09T04:04:42.857Z,51.62
2018-08-09T04:07:11.014Z,51.60
2018-08-09T04:09:39.175Z,50.96
2018-08-09T04:12:07.395Z,51.25
2018-08-09T04:14:35.502Z,51.15
2018-08-09T04:17:07.983Z,50.58
2018-08-09T04:19:36.148Z,50.48
2018-08-09T04:22:04.329Z,50.91
2018-08-09T04:24:32.502Z,50.73
2018-08-09T04:27:00.694Z,50.31
2018-08-09T04:29:28.866Z,50.08
2018-08-09T04:31:57.034Z,50.98
2018-08-09T04:34:25.230Z,50.00
2018-08-09T04:36:53.453Z,50.13
2018-08-09T04:39:21.695Z,49.76
2018-08-09T04:41:49.877Z,49.57
2018-08-09T04:44:18.083Z,49.82
2018-08-09T04:46:46.309Z,49.60
2018-08-09T04:49:14.494Z,50.03
2018-08-09T04:51:42.654Z,49.93
2018-08-09T04:54:10.917Z,50.10
2018-08-09T04:56:39.075Z,49.83
2018-08-09T04:59:07.248Z,49.70
2018-08-09T05:01:35.402Z,50.31
2018-08-09T05:04:03.563Z,49.86
2018-08-09T05:06:31.723Z,49.99
2018-08-09T05:08:59.890Z,49.91
2018-08-09T05:11:28.051Z,49.91
2018-08-09T05:13:56.485Z,49.71
2018-08-09T05:16:24.747Z,50.20
2018-08-09T05:18:53.277Z,49.71
2018-08-09T05:21:21.462Z,49.71
2018-08-09T05:23:49.656Z,51.00
2018-08-09T05:26:17.923Z,50.25
2018-08-09T05:28:46.090Z,50.89
2018-08-09T05:31:14.276Z,51.05
2018-08-09T05:33:42.499Z,52.25
2018-08-09T05:36:10.710Z,53.79
2018-08-09T05:38:38.946Z,55.21
2018-08-09T05:41:07.117Z,55.77
2018-08-09T05:43:35.391Z,54.54
2018-08-09T05:46:03.602Z,55.30
2018-08-09T05:48:31.845Z,54.88
2018-08-09T05:51:00.072Z,54.46
2018-08-09T05:53:28.242Z,53.83
2018-08-09T05:55:56.453Z,53.93
2018-08-09T05:58:24.677Z,53.93
2018-08-09T06:00:52.898Z,54.18
2018-08-09T06:03:21.174Z,54.10
2018-08-09T06:05:49.469Z,54.74
2018-08-09T06:08:17.694Z,54.35
2018-08-09T06:10:45.863Z,54.03
2018-08-09T06:13:14.098Z,54.11
2018-08-09T06:15:42.363Z,53.79
2018-08-09T06:18:10.626Z,53.64
2018-08-09T06:20:38.972Z,52.43
2018-08-09T06:23:07.254Z,52.52
2018-08-09T06:25:35.423Z,52.50
2018-08-09T06:28:03.594Z,51.96
2018-08-09T06:30:31.780Z,50.87
2018-08-09T06:32:59.938Z,50.65
2018-08-09T06:35:28.202Z,51.86
2018-08-09T06:37:56.427Z,50.51
2018-08-09T06:40:24.638Z,50.82
2018-08-09T06:42:52.819Z,51.73
2018-08-09T06:45:21.030Z,52.72
2018-08-09T06:47:49.256Z,51.56
2018-08-09T06:50:17.470Z,51.71
2018-08-09T06:52:45.662Z,52.67
2018-08-09T06:55:13.909Z,50.27
2018-08-09T06:57:42.081Z,51.15
2018-08-09T07:00:12.190Z,50.42
2018-08-09T07:02:40.482Z,50.79
2018-08-09T07:05:08.711Z,49.50
2018-08-09T07:07:37.106Z,49.42
2018-08-09T07:10:05.774Z,49.74
2018-08-09T07:12:33.982Z,50.14
2018-08-09T07:15:02.170Z,50.05
2018-08-09T07:17:30.363Z,49.81
2018-08-09T07:19:58.555Z,49.75
2018-08-09T07:22:26.729Z,50.10
2018-08-09T07:24:54.957Z,49.98
2018-08-09T07:27:23.129Z,49.93
2018-08-09T07:29:51.300Z,50.03
2018-08-09T07:32:19.474Z,50.59
2018-08-09T07:34:47.647Z,50.27
2018-08-09T07:37:15.881Z,49.74
2018-08-09T07:39:44.118Z,48.75
2018-08-09T07:42:12.274Z,49.76
2018-08-09T07:44:40.454Z,48.70
2018-08-09T07:47:08.743Z,49.27
2018-08-09T07:49:36.931Z,49.77
2018-08-09T07:52:05.296Z,49.56
2018-08-09T07:54:33.470Z,48.99
2018-08-09T07:57:01.694Z,49.08
2018-08-09T07:59:29.855Z,49.50
2018-08-09T08:01:58.028Z,50.91
2018-08-09T08:04:26.220Z,49.87
2018-08-09T08:06:54.416Z,48.40
2018-08-09T08:09:22.603Z,49.17
2018-08-09T08:11:50.866Z,49.21
2018-08-09T08:14:19.043Z,48.26
2018-08-09T08:16:47.232Z,48.13
2018-08-09T08:19:15.448Z,47.62
2018-08-09T08:21:43.635Z,47.92
2018-08-09T08:24:11.826Z,47.98
2018-08-09T08:26:40.037Z,48.31
2018-08-09T08:29:08.193Z,48.65
2018-08-09T08:31:36.377Z,48.40
2018-08-09T08:34:04.582Z,48.40
2018-08-09T08:36:32.780Z,48.10
2018-08-09T08:39:01.000Z,47.35
2018-08-09T08:41:29.216Z,48.35
2018-08-09T08:43:57.359Z,47.95
2018-08-09T08:46:25.542Z,47.72
2018-08-09T08:48:53.722Z,47.20
2018-08-09T08:51:21.908Z,47.26
2018-08-09T08:53:50.085Z,46.74
2018-08-09T08:56:18.319Z,47.33
2018-08-09T08:58:46.479Z,46.06
2018-08-09T09:01:14.746Z,46.09
2018-08-09T09:03:42.948Z,46.70
2018-08-09T09:06:11.257Z,46.21
2018-08-09T09:08:39.706Z,46.36
2018-08-09T09:11:07.881Z,45.70
2018-08-09T09:13:36.104Z,45.02
2018-08-09T09:16:04.434Z,46.04
2018-08-09T09:18:32.607Z,45.39
2018-08-09T09:21:00.790Z,47.00
2018-08-09T09:23:28.962Z,44.82
2018-08-09T09:25:57.129Z,43.77
2018-08-09T09:28:25.303Z,43.20
2018-08-09T09:30:53.479Z,42.11
2018-08-09T09:33:21.667Z,40.55
2018-08-09T09:35:49.831Z,41.49
2018-08-09T09:38:18.016Z,39.54
2018-08-09T09:40:46.195Z,40.05
2018-08-09T09:43:14.383Z,38.65
2018-08-09T09:45:42.562Z,39.09
2018-08-09T09:48:10.782Z,39.10
2018-08-09T09:50:38.974Z,38.84
2018-08-09T09:53:07.163Z,38.38
2018-08-09T09:55:35.382Z,38.33
2018-08-09T09:58:03.550Z,37.49
2018-08-09T10:00:38.761Z,37.88
2018-08-09T10:03:06.955Z,36.73
2018-08-09T10:05:35.125Z,37.87
2018-08-09T10:08:03.393Z,36.79
2018-08-09T10:10:31.700Z,36.64
2018-08-09T10:12:59.830Z,35.93
2018-08-09T10:15:28.012Z,34.46
2018-08-09T10:17:56.330Z,34.58
2018-08-09T10:20:24.491Z,35.20
2018-08-09T10:22:52.666Z,35.18
2018-08-09T10:25:20.840Z,34.32
2018-08-09T10:27:49.031Z,33.44
2018-08-09T10:30:17.200Z,32.98
2018-08-09T10:32:45.386Z,33.49
2018-08-09T10:35:13.592Z,35.23
2018-08-09T10:37:41.818Z,34.90
2018-08-09T10:40:09.990Z,35.11
2018-08-09T10:42:38.230Z,34.32
2018-08-09T10:45:06.391Z,34.88
2018-08-09T10:47:34.562Z,34.71
2018-08-09T10:50:02.750Z,34.51
2018-08-09T10:52:30.927Z,34.04
2018-08-09T10:54:59.114Z,33.50
2018-08-09T10:57:27.532Z,35.15
2018-08-09T10:59:55.690Z,34.40
2018-08-09T11:02:23.862Z,34.88
2018-08-09T11:04:52.128Z,34.29
2018-08-09T11:07:20.283Z,33.65
2018-08-09T11:09:48.445Z,32.76
2018-08-09T11:12:16.646Z,31.46
2018-08-09T11:14:44.920Z,31.94
2018-08-09T11:17:13.221Z,31.49
2018-08-09T11:19:41.471Z,29.92
2018-08-09T11:22:09.732Z,30.50
2018-08-09T11:24:38.422Z,30.83
2018-08-09T11:27:07.573Z,31.16
2018-08-09T11:29:35.866Z,31.55
2018-08-09T11:32:04.104Z,31.59
2018-08-09T11:34:32.348Z,32.64
2018-08-09T11:37:00.604Z,34.11
2018-08-09T11:39:28.841Z,33.42
2018-08-09T11:41:57.118Z,32.09
2018-08-09T11:44:25.382Z,32.99
2018-08-09T11:46:53.583Z,32.31
2018-08-09T11:49:21.809Z,32.97
2018-08-09T11:51:50.294Z,32.96
2018-08-09T11:54:18.570Z,34.78
2018-08-09T11:56:46.851Z,31.67
2018-08-09T11:59:15.090Z,33.27
2018-08-09T12:01:43.372Z,32.98
2018-08-09T12:04:11.583Z,33.23
2018-08-09T12:06:39.866Z,32.61
2018-08-09T12:09:09.554Z,32.98
2018-08-09T12:11:38.582Z,33.26
2018-08-09T12:14:07.470Z,34.26
2018-08-09T12:16:36.060Z,34.01
2018-08-09T12:19:04.804Z,33.91
2018-08-09T12:21:33.041Z,33.85
2018-08-09T12:24:01.416Z,34.06
2018-08-09T12:26:29.706Z,34.25
2018-08-09T12:28:57.992Z,34.46
2018-08-09T12:31:26.299Z,34.52
2018-08-09T12:33:54.779Z,35.61
2018-08-09T12:36:23.037Z,34.98
2018-08-09T12:38:51.398Z,35.68
2018-08-09T12:41:19.766Z,35.41
2018-08-09T12:43:48.063Z,36.07
2018-08-09T12:46:16.322Z,35.94
2018-08-09T12:48:44.887Z,36.48
2018-08-09T12:51:13.157Z,36.51
2018-08-09T12:53:41.460Z,38.13
2018-08-09T12:56:09.826Z,42.79
2018-08-09T12:58:38.482Z,45.34
2018-08-09T13:01:06.715Z,45.32
2018-08-09T13:03:35.015Z,46.76
2018-08-09T13:06:03.595Z,47.42
2018-08-09T13:08:31.925Z,48.89
2018-08-09T13:11:00.218Z,47.89
2018-08-09T13:13:28.630Z,48.53
2018-08-09T13:15:56.922Z,47.78
2018-08-09T13:18:25.222Z,48.75
2018-08-09T13:20:53.614Z,48.89
2018-08-09T13:23:21.926Z,48.97
2018-08-09T13:25:50.198Z,49.10
2018-08-09T13:28:18.466Z,49.46
2018-08-09T13:30:46.682Z,51.42
2018-08-09T13:33:14.930Z,53.33
2018-08-09T13:35:43.229Z,54.64
2018-08-09T13:38:11.478Z,55.22
2018-08-09T13:40:39.731Z,55.63
2018-08-09T13:43:07.986Z,56.61
2018-08-09T13:45:36.234Z,56.54
2018-08-09T13:48:04.513Z,56.56
2018-08-09T13:50:32.814Z,57.74
2018-08-09T13:53:01.158Z,57.56
2018-08-09T13:55:29.494Z,57.54
2018-08-09T13:57:57.746Z,56.98
2018-08-09T14:00:26.089Z,56.79
2018-08-09T14:02:54.332Z,57.48
2018-08-09T14:05:22.641Z,56.47
2018-08-09T14:07:50.919Z,57.05
2018-08-09T14:10:19.225Z,56.16
2018-08-09T14:12:47.498Z,56.59
2018-08-09T14:15:15.989Z,54.80
2018-08-09T14:17:44.785Z,55.81
2018-08-09T14:20:15.796Z,53.86
2018-08-09T14:22:44.211Z,53.54
2018-08-09T14:25:12.878Z,54.03
2018-08-09T14:27:41.161Z,55.14
2018-08-09T14:30:11.075Z,54.24
2018-08-09T14:32:39.371Z,53.75
2018-08-09T14:35:10.670Z,54.37
2018-08-09T14:37:39.235Z,54.62
2018-08-09T14:40:08.491Z,53.06
2018-08-09T14:42:36.833Z,53.57
2018-08-09T14:45:07.863Z,53.23
2018-08-09T14:47:36.211Z,52.78
2018-08-09T14:50:05.229Z,52.26
2018-08-09T14:52:33.839Z,52.51
2018-08-09T14:55:02.318Z,53.40
2018-08-09T14:57:30.626Z,53.26
2018-08-09T14:59:58.922Z,53.25
2018-08-09T15:02:27.198Z,53.76
2018-08-09T15:04:55.531Z,54.03
2018-08-09T15:07:23.787Z,53.60
2018-08-09T15:09:52.126Z,54.26
2018-08-09T15:12:20.487Z,54.38
2018-08-09T15:14:48.750Z,54.00
2018-08-09T15:17:17.092Z,55.27
2018-08-09T15:19:45.243Z,54.47
2018-08-09T15:22:13.426Z,54.03
2018-08-09T15:24:41.625Z,55.50
2018-08-09T15:27:09.851Z,54.95
2018-08-09T15:29:38.022Z,55.35
2018-08-09T15:32:06.247Z,55.53
2018-08-09T15:34:34.429Z,55.96
2018-08-09T15:37:02.671Z,56.43
2018-08-09T15:39:30.867Z,56.27
2018-08-09T15:41:59.058Z,56.56
2018-08-09T15:44:27.229Z,57.42
2018-08-09T15:46:55.429Z,57.16
2018-08-09T15:49:23.606Z,57.41
2018-08-09T15:51:51.807Z,57.56
2018-08-09T15:54:20.006Z,57.51
2018-08-09T15:56:48.419Z,57.52
2018-08-09T15:59:16.574Z,57.11
2018-08-09T16:01:44.852Z,58.02
2018-08-09T16:04:13.082Z,58.32
2018-08-09T16:06:41.286Z,58.05
2018-08-09T16:09:12.059Z,58.44
2018-08-09T16:11:40.248Z,58.26
2018-08-09T16:14:08.615Z,58.01
2018-08-09T16:16:36.815Z,58.43
2018-08-09T16:19:05.075Z,58.20
2018-08-09T16:21:33.306Z,57.87
2018-08-09T16:24:01.522Z,57.84
2018-08-09T16:26:29.715Z,58.46
2018-08-09T16:28:57.942Z,58.21
2018-08-09T16:31:26.273Z,57.51
2018-08-09T16:33:54.641Z,57.63
2018-08-09T16:36:22.893Z,57.92
2018-08-09T16:38:51.460Z,57.03
2018-08-09T16:41:19.727Z,57.15
2018-08-09T16:43:47.894Z,57.44
2018-08-09T16:46:16.144Z,56.78
2018-08-09T16:48:44.422Z,57.12
2018-08-09T16:51:12.669Z,57.34
2018-08-09T16:53:40.984Z,57.33
2018-08-09T16:56:09.322Z,56.65
2018-08-09T16:58:37.598Z,56.11
2018-08-09T17:01:05.870Z,55.99
2018-08-09T17:03:34.148Z,56.45
2018-08-09T17:06:02.399Z,57.02
2018-08-09T17:08:30.701Z,55.77
2018-08-09T17:10:59.026Z,56.74
2018-08-09T17:13:27.376Z,56.00
2018-08-09T17:15:55.659Z,56.00
2018-08-09T17:18:23.993Z,55.60
2018-08-09T17:20:52.626Z,55.10
2018-08-09T17:23:21.033Z,54.54
2018-08-09T17:25:49.784Z,55.70
2018-08-09T17:28:18.046Z,54.69
2018-08-09T17:30:46.383Z,55.10
2018-08-09T17:33:14.750Z,55.83
2018-08-09T17:35:42.939Z,55.72
2018-08-09T17:38:11.319Z,56.28
2018-08-09T17:40:39.589Z,57.01
2018-08-09T17:43:07.889Z,57.67
2018-08-09T17:45:36.214Z,57.08
2018-08-09T17:48:04.671Z,56.93
2018-08-09T17:50:32.996Z,57.29
2018-08-09T17:53:02.206Z,57.46
2018-08-09T17:55:31.011Z,56.29
2018-08-09T17:57:59.213Z,52.69
2018-08-09T18:00:28.935Z,52.07
2018-08-09T18:02:57.233Z,48.60
2018-08-09T18:05:25.431Z,47.89
2018-08-09T18:07:53.986Z,47.21
2018-08-09T18:10:25.455Z,47.46
2018-08-09T18:12:53.829Z,47.25
2018-08-09T18:15:22.926Z,47.94
2018-08-09T18:17:51.402Z,47.61
2018-08-09T18:20:22.050Z,47.67
2018-08-09T18:22:50.258Z,48.58
2018-08-09T18:25:18.442Z,48.56
2018-08-09T18:27:46.618Z,48.53
2018-08-09T18:30:16.782Z,48.46
2018-08-09T18:32:45.245Z,49.06
2018-08-09T18:35:14.566Z,48.99
2018-08-09T18:37:42.818Z,48.64
2018-08-09T18:40:16.307Z,47.90
2018-08-09T18:42:44.469Z,48.28
2018-08-09T18:45:12.810Z,49.47
2018-08-09T18:47:41.209Z,49.61
2018-08-09T18:50:13.750Z,50.03
2018-08-09T18:52:42.395Z,51.78
2018-08-09T18:55:11.095Z,52.50
2018-08-09T18:57:39.706Z,52.12
2018-08-09T19:00:14.165Z,52.18
2018-08-09T19:02:42.611Z,52.75
2018-08-09T19:05:10.807Z,53.04
2018-08-09T19:07:39.034Z,52.75
2018-08-09T19:10:15.723Z,53.18
2018-08-09T19:12:43.991Z,53.22
2018-08-09T19:15:13.012Z,53.07
2018-08-09T19:17:41.510Z,53.67
2018-08-09T19:20:19.282Z,53.29
2018-08-09T19:22:47.507Z,54.15
2018-08-09T19:25:15.811Z,54.49
2018-08-09T19:27:44.411Z,54.37
2018-08-09T19:30:13.581Z,54.79
2018-08-09T19:32:41.850Z,54.78
2018-08-09T19:35:12.723Z,54.39
2018-08-09T19:37:41.554Z,54.34
2018-08-09T19:40:11.411Z,54.41
2018-08-09T19:42:40.170Z,54.16
2018-08-09T19:45:14.190Z,54.26
2018-08-09T19:47:42.383Z,52.97
2018-08-09T19:50:12.555Z,52.52
2018-08-09T19:52:40.748Z,52.68
2018-08-09T19:55:10.951Z,51.95
2018-08-09T19:57:39.928Z,51.35
2018-08-09T20:00:10.531Z,51.41
2018-08-09T20:02:38.722Z,51.72
2018-08-09T20:05:08.039Z,51.97
2018-08-09T20:07:36.206Z,51.86
2018-08-09T20:10:04.719Z,51.96
2018-08-09T20:12:33.101Z,51.80
2018-08-09T20:15:01.358Z,52.04
2018-08-09T20:17:29.547Z,52.05
2018-08-09T20:19:57.999Z,51.58
2018-08-09T20:22:26.225Z,51.66
2018-08-09T20:24:54.402Z,51.63
2018-08-09T20:27:22.664Z,51.88
2018-08-09T20:29:50.903Z,51.77
2018-08-09T20:32:19.134Z,51.93
2018-08-09T20:34:47.358Z,51.85
2018-08-09T20:37:15.566Z,52.46
2018-08-09T20:39:43.770Z,52.08
2018-08-09T20:42:11.947Z,52.44
2018-08-09T20:44:40.201Z,52.67
2018-08-09T20:47:08.387Z,52.34
2018-08-09T20:49:36.585Z,52.53
2018-08-09T20:52:04.783Z,52.63
2018-08-09T20:54:32.972Z,53.38
2018-08-09T20:57:01.179Z,53.70
2018-08-09T20:59:29.350Z,53.93
2018-08-09T21:01:57.579Z,53.21
2018-08-09T21:04:25.754Z,53.78
2018-08-09T21:06:53.999Z,53.72
2018-08-09T21:09:22.228Z,53.73
2018-08-09T21:11:50.407Z,53.96
2018-08-09T21:14:18.622Z,53.35
2018-08-09T21:16:46.848Z,53.39
2018-08-09T21:19:15.063Z,53.17
2018-08-09T21:21:49.851Z,53.56
2018-08-09T21:24:18.018Z,53.20
2018-08-09T21:26:46.208Z,53.98
2018-08-09T21:29:14.378Z,54.19
2018-08-09T21:31:42.579Z,55.24
2018-08-09T21:34:10.823Z,55.16
2018-08-09T21:36:39.003Z,54.46
2018-08-09T21:39:08.771Z,54.73
2018-08-09T21:41:36.959Z,54.65
2018-08-09T21:44:05.193Z,55.34
2018-08-09T21:46:33.386Z,54.98
2018-08-09T21:49:01.930Z,54.93
2018-08-09T21:51:36.772Z,54.73
2018-08-09T21:54:04.982Z,54.59
2018-08-09T21:56:33.178Z,54.74
2018-08-09T21:59:01.358Z,55.32
2018-08-09T22:01:29.587Z,55.38
2018-08-09T22:03:57.824Z,55.70
2018-08-09T22:06:31.294Z,56.32
2018-08-09T22:09:04.862Z,55.89
2018-08-09T22:11:38.302Z,56.35
2018-08-09T22:14:11.847Z,56.21
2018-08-09T22:16:45.248Z,55.43
2018-08-09T22:19:18.726Z,55.43
2018-08-09T22:21:52.278Z,56.35
2018-08-09T22:24:20.487Z,56.27
2018-08-09T22:26:48.666Z,56.42
2018-08-09T22:29:16.876Z,56.01
2018-08-09T22:31:45.107Z,56.44
2018-08-09T22:34:13.286Z,56.71
2018-08-09T22:36:41.535Z,56.45
2018-08-09T22:39:09.940Z,56.15
2018-08-09T22:41:38.150Z,56.12
2018-08-09T22:44:06.434Z,56.21
2018-08-09T22:46:34.628Z,56.53
2018-08-09T22:49:02.842Z,55.98
2018-08-09T22:51:31.123Z,56.04
2018-08-09T22:53:59.306Z,56.35
2018-08-09T22:56:27.528Z,56.13
2018-08-09T22:58:55.810Z,56.74
2018-08-09T23:01:23.996Z,56.69
2018-08-09T23:03:52.195Z,56.36
2018-08-09T23:06:20.402Z,56.45
2018-08-09T23:08:48.661Z,56.54
2018-08-09T23:11:16.863Z,56.27
2018-08-09T23:13:45.077Z,56.76
2018-08-09T23:16:13.274Z,56.34
2018-08-09T23:18:41.478Z,56.33
2018-08-09T23:21:09.707Z,55.57
2018-08-09T23:23:37.974Z,55.66
2018-08-09T23:26:06.227Z,56.08
2018-08-09T23:28:34.439Z,56.28
2018-08-09T23:31:02.665Z,56.54
2018-08-09T23:33:30.933Z,57.00
2018-08-09T23:35:59.131Z,57.10
2018-08-09T23:38:27.314Z,57.47
2018-08-09T23:40:55.519Z,57.66
2018-08-09T23:43:23.734Z,59.25
2018-08-09T23:45:51.973Z,60.79
2018-08-09T23:48:20.414Z,61.51
2018-08-09T23:50:48.634Z,62.01
2018-08-09T23:53:16.879Z,61.86
2018-08-09T23:55:45.104Z,63.74
2018-08-09T23:58:13.322Z,65.95
